createdAt,value
2019-01-10T00:00:16.386Z,2.20
2019-01-10T00:02:45.383Z,2.20
2019-01-10T00:05:14.200Z,2.20
2019-01-10T00:07:42.791Z,2.20
2019-01-10T00:10:14.188Z,2.20
2019-01-10T00:12:42.712Z,2.20
2019-01-10T00:15:13.904Z,2.20
2019-01-10T00:17:42.780Z,2.20
2019-01-10T00:20:12.873Z,2.20
2019-01-10T00:22:41.763Z,2.20
2019-01-10T00:25:12.225Z,2.20
2019-01-10T00:27:40.780Z,2.20
2019-01-10T00:30:12.443Z,2.20
2019-01-10T00:32:41.055Z,2.20
2019-01-10T00:35:10.543Z,2.20
2019-01-10T00:37:39.407Z,2.20
2019-01-10T00:40:10.411Z,2.20
2019-01-10T00:42:38.966Z,2.30
2019-01-10T00:45:13.073Z,2.30
2019-01-10T00:47:41.687Z,2.30
2019-01-10T00:50:13.448Z,2.30
2019-01-10T00:52:42.067Z,2.30
2019-01-10T00:55:10.662Z,2.30
2019-01-10T00:57:39.547Z,2.30
2019-01-10T01:00:11.147Z,2.30
2019-01-10T01:02:39.628Z,2.30
2019-01-10T01:05:11.099Z,2.30
2019-01-10T01:07:39.888Z,2.40
2019-01-10T01:10:14.772Z,2.30
2019-01-10T01:12:43.395Z,2.40
2019-01-10T01:15:14.294Z,2.30
2019-01-10T01:17:42.839Z,2.30
2019-01-10T01:20:13.431Z,2.40
2019-01-10T01:22:41.907Z,2.30
2019-01-10T01:25:11.899Z,2.30
2019-01-10T01:27:40.448Z,2.30
2019-01-10T01:30:14.920Z,2.30
2019-01-10T01:32:43.538Z,2.30
2019-01-10T01:35:12.347Z,2.30
2019-01-10T01:37:41.042Z,2.30
2019-01-10T01:40:15.321Z,2.30
2019-01-10T01:42:44.308Z,2.30
2019-01-10T01:45:15.244Z,2.30
2019-01-10T01:47:43.791Z,2.30
2019-01-10T01:50:15.556Z,2.30
2019-01-10T01:52:44.116Z,2.30
2019-01-10T01:55:12.871Z,2.30
2019-01-10T01:57:41.468Z,2.30
2019-01-10T02:00:15.228Z,2.30
2019-01-10T02:02:43.748Z,2.30
2019-01-10T02:05:12.376Z,2.30
2019-01-10T02:07:40.958Z,2.30
2019-01-10T02:10:12.752Z,2.30
2019-01-10T02:12:41.271Z,2.30
2019-01-10T02:15:10.331Z,2.30
2019-01-10T02:17:38.787Z,2.30
2019-01-10T02:20:09.579Z,2.30
2019-01-10T02:22:38.690Z,2.30
2019-01-10T02:25:10.160Z,2.30
2019-01-10T02:27:38.760Z,2.30
2019-01-10T02:30:10.320Z,2.30
2019-01-10T02:32:38.903Z,2.20
2019-01-10T02:35:08.416Z,2.30
2019-01-10T02:37:36.876Z,2.30
2019-01-10T02:40:07.669Z,2.30
2019-01-10T02:42:36.260Z,2.30
2019-01-10T02:45:07.984Z,2.30
2019-01-10T02:47:36.508Z,2.30
2019-01-10T02:50:08.068Z,2.30
2019-01-10T02:52:36.591Z,2.30
2019-01-10T02:55:07.646Z,2.30
2019-01-10T02:57:36.244Z,2.30
2019-01-10T03:00:08.035Z,2.30
2019-01-10T03:02:36.494Z,2.30
2019-01-10T03:05:05.584Z,2.30
2019-01-10T03:07:34.452Z,2.30
2019-01-10T03:10:03.071Z,2.20
2019-01-10T03:12:31.820Z,2.30
2019-01-10T03:15:00.277Z,2.20
2019-01-10T03:17:28.819Z,2.30
2019-01-10T03:19:57.271Z,2.30
2019-01-10T03:22:25.748Z,2.20
2019-01-10T03:24:54.267Z,2.20
2019-01-10T03:27:22.752Z,2.20
2019-01-10T03:29:51.623Z,2.20
2019-01-10T03:32:20.072Z,2.20
2019-01-10T03:34:48.976Z,2.20
2019-01-10T03:37:17.504Z,2.20
2019-01-10T03:39:46.358Z,2.20
2019-01-10T03:42:14.881Z,2.20
2019-01-10T03:44:43.726Z,2.20
2019-01-10T03:47:12.248Z,2.20
2019-01-10T03:49:40.711Z,2.20
2019-01-10T03:52:09.682Z,2.20
2019-01-10T03:54:38.573Z,2.20
2019-01-10T03:57:07.134Z,2.30
2019-01-10T03:59:35.742Z,2.20
2019-01-10T04:02:04.431Z,2.30
2019-01-10T04:04:33.437Z,2.30
2019-01-10T04:07:01.930Z,2.30
2019-01-10T04:09:30.684Z,2.20
2019-01-10T04:11:59.145Z,2.20
2019-01-10T04:14:27.695Z,2.20
2019-01-10T04:16:56.148Z,2.20
2019-01-10T04:19:24.628Z,2.20
2019-01-10T04:21:53.152Z,2.30
2019-01-10T04:24:21.986Z,2.30
2019-01-10T04:26:50.512Z,2.20
2019-01-10T04:29:19.075Z,2.20
2019-01-10T04:31:47.605Z,2.20
2019-01-10T04:34:16.160Z,2.20
2019-01-10T04:36:44.689Z,2.30
2019-01-10T04:39:13.240Z,2.30
2019-01-10T04:41:41.778Z,2.30
2019-01-10T04:44:11.304Z,2.30
2019-01-10T04:46:40.058Z,2.30
2019-01-10T04:49:08.588Z,2.30
2019-01-10T04:51:37.434Z,2.30
2019-01-10T04:54:06.318Z,2.30
2019-01-10T04:56:34.871Z,2.30
2019-01-10T04:59:03.394Z,2.30
2019-01-10T05:01:31.957Z,2.40
2019-01-10T05:04:00.479Z,2.40
2019-01-10T05:06:28.960Z,2.40
2019-01-10T05:08:57.488Z,2.40
2019-01-10T05:11:25.949Z,2.40
2019-01-10T05:13:54.508Z,2.40
2019-01-10T05:16:23.041Z,2.40
2019-01-10T05:18:51.597Z,2.40
2019-01-10T05:21:20.128Z,2.40
2019-01-10T05:23:48.687Z,2.40
2019-01-10T05:26:17.217Z,2.40
2019-01-10T05:28:45.776Z,2.40
2019-01-10T05:31:14.300Z,2.30
2019-01-10T05:33:42.876Z,2.40
2019-01-10T05:36:11.572Z,2.40
2019-01-10T05:38:40.145Z,2.40
2019-01-10T05:41:09.029Z,2.40
2019-01-10T05:43:37.490Z,2.30
2019-01-10T05:46:06.275Z,2.30
2019-01-10T05:48:34.737Z,2.40
2019-01-10T05:51:03.221Z,2.40
2019-01-10T05:53:32.017Z,2.30
2019-01-10T05:56:00.509Z,2.40
2019-01-10T05:58:29.037Z,2.40
2019-01-10T06:00:57.569Z,2.40
2019-01-10T06:03:26.117Z,2.40
2019-01-10T06:05:54.652Z,2.40
2019-01-10T06:08:23.635Z,2.40
2019-01-10T06:10:52.165Z,2.40
2019-01-10T06:13:20.721Z,2.40
2019-01-10T06:15:49.580Z,2.40
2019-01-10T06:18:18.068Z,2.50
2019-01-10T06:20:46.601Z,2.40
2019-01-10T06:23:15.333Z,2.40
2019-01-10T06:25:43.893Z,2.50
2019-01-10T06:28:12.492Z,2.50
2019-01-10T06:30:41.392Z,2.50
2019-01-10T06:33:09.848Z,2.40
2019-01-10T06:35:38.396Z,2.40
2019-01-10T06:38:07.069Z,2.50
2019-01-10T06:40:35.624Z,2.50
2019-01-10T06:43:04.080Z,2.50
2019-01-10T06:45:32.564Z,2.50
2019-01-10T06:48:01.089Z,2.50
2019-01-10T06:50:29.561Z,2.50
2019-01-10T06:52:58.121Z,2.50
2019-01-10T06:55:26.641Z,2.50
2019-01-10T06:57:55.134Z,2.50
2019-01-10T07:00:24.300Z,2.50
2019-01-10T07:02:53.096Z,2.50
2019-01-10T07:05:21.697Z,2.50
2019-01-10T07:07:56.262Z,2.50
2019-01-10T07:10:23.270Z,2.50
2019-01-10T07:12:51.820Z,2.50
2019-01-10T07:15:20.710Z,2.50
2019-01-10T07:17:49.345Z,2.50
2019-01-10T07:20:18.497Z,2.50
2019-01-10T07:22:49.764Z,2.50
2019-01-10T07:25:18.440Z,2.60
2019-01-10T07:27:47.111Z,2.50
2019-01-10T07:30:18.673Z,2.50
2019-01-10T07:32:47.200Z,2.50
2019-01-10T07:35:15.729Z,2.50
2019-01-10T07:37:47.861Z,2.50
2019-01-10T07:40:16.686Z,2.50
2019-01-10T07:42:45.361Z,2.50
2019-01-10T07:45:19.680Z,2.50
2019-01-10T07:47:48.813Z,2.40
2019-01-10T07:50:19.290Z,2.40
2019-01-10T07:52:48.252Z,2.40
2019-01-10T07:55:16.788Z,2.50
2019-01-10T07:57:45.383Z,2.50
2019-01-10T08:00:17.561Z,2.50
2019-01-10T08:02:46.328Z,2.50
2019-01-10T08:05:14.952Z,2.50
2019-01-10T08:07:43.728Z,2.50
2019-01-10T08:10:15.128Z,2.50
2019-01-10T08:12:43.805Z,2.50
2019-01-10T08:15:15.466Z,2.50
2019-01-10T08:17:44.172Z,2.60
2019-01-10T08:20:13.236Z,2.60
2019-01-10T08:22:42.222Z,2.60
2019-01-10T08:25:11.221Z,2.60
2019-01-10T08:27:39.884Z,2.60
2019-01-10T08:30:11.498Z,2.60
2019-01-10T08:32:40.303Z,2.70
2019-01-10T08:35:09.519Z,2.70
2019-01-10T08:37:37.977Z,2.70
2019-01-10T08:40:08.883Z,2.80
2019-01-10T08:42:37.408Z,2.80
2019-01-10T08:45:08.469Z,2.80
2019-01-10T08:47:37.031Z,2.90
2019-01-10T08:50:08.636Z,2.90
2019-01-10T08:52:37.191Z,3.00
2019-01-10T08:55:07.298Z,3.00
2019-01-10T08:57:35.925Z,3.10
2019-01-10T09:00:11.088Z,3.10
2019-01-10T09:02:39.648Z,3.20
2019-01-10T09:05:08.616Z,3.20
2019-01-10T09:07:37.147Z,3.30
2019-01-10T09:10:11.273Z,3.30
2019-01-10T09:12:39.800Z,3.20
2019-01-10T09:15:09.500Z,3.20
2019-01-10T09:17:38.096Z,3.30
2019-01-10T09:20:10.061Z,3.30
2019-01-10T09:22:38.587Z,3.30
2019-01-10T09:25:07.455Z,3.40
2019-01-10T09:27:36.148Z,3.40
2019-01-10T09:30:07.689Z,3.50
2019-01-10T09:32:36.434Z,3.60
2019-01-10T09:35:05.227Z,3.60
2019-01-10T09:37:33.715Z,3.70
2019-01-10T09:40:02.307Z,3.70
2019-01-10T09:42:31.286Z,3.70
2019-01-10T09:44:59.849Z,3.70
2019-01-10T09:47:28.729Z,3.70
2019-01-10T09:49:57.221Z,3.70
2019-01-10T09:52:25.818Z,3.60
2019-01-10T09:54:54.345Z,3.60
2019-01-10T09:57:22.835Z,3.50
2019-01-10T09:59:51.428Z,3.50
2019-01-10T10:02:20.337Z,3.40
2019-01-10T10:04:48.865Z,3.40
2019-01-10T10:07:17.497Z,3.30
2019-01-10T10:09:46.016Z,3.20
2019-01-10T10:12:14.572Z,3.20
2019-01-10T10:14:43.360Z,3.20
2019-01-10T10:17:22.979Z,3.20
2019-01-10T10:19:51.488Z,3.20
2019-01-10T10:22:20.017Z,3.30
2019-01-10T10:24:48.858Z,3.40
2019-01-10T10:27:17.415Z,3.40
2019-01-10T10:29:45.960Z,3.30
2019-01-10T10:32:14.918Z,3.40
2019-01-10T10:34:43.444Z,3.40
2019-01-10T10:37:12.009Z,3.40
2019-01-10T10:39:40.538Z,3.40
2019-01-10T10:42:09.456Z,3.40
2019-01-10T10:44:37.996Z,3.60
2019-01-10T10:47:06.609Z,3.70
2019-01-10T10:49:35.148Z,3.90
2019-01-10T10:52:03.881Z,4.00
2019-01-10T10:54:32.408Z,4.00
2019-01-10T10:57:01.369Z,4.10
2019-01-10T10:59:29.991Z,4.10
2019-01-10T11:01:58.525Z,4.20
2019-01-10T11:04:27.085Z,4.20
2019-01-10T11:06:55.613Z,4.30
2019-01-10T11:09:24.172Z,4.30
2019-01-10T11:11:53.037Z,4.40
2019-01-10T11:14:21.727Z,4.40
2019-01-10T11:16:50.549Z,4.40
2019-01-10T11:19:19.072Z,4.40
2019-01-10T11:21:47.630Z,4.40
2019-01-10T11:24:16.164Z,4.50
2019-01-10T11:26:44.724Z,4.70
2019-01-10T11:29:13.261Z,5.00
2019-01-10T11:31:41.720Z,5.20
2019-01-10T11:34:10.408Z,5.20
2019-01-10T11:36:38.864Z,5.10
2019-01-10T11:39:08.355Z,5.10
2019-01-10T11:41:36.816Z,5.20
2019-01-10T11:44:05.514Z,5.40
2019-01-10T11:46:34.036Z,5.30
2019-01-10T11:49:02.511Z,5.20
2019-01-10T11:51:31.064Z,5.10
2019-01-10T11:53:59.592Z,5.00
2019-01-10T11:56:28.077Z,4.90
2019-01-10T11:58:56.604Z,4.80
2019-01-10T12:01:25.231Z,4.60
2019-01-10T12:03:53.828Z,4.50
2019-01-10T12:06:22.378Z,4.50
2019-01-10T12:08:51.169Z,4.40
2019-01-10T12:11:19.800Z,4.30
2019-01-10T12:13:48.693Z,4.20
2019-01-10T12:16:17.248Z,4.10
2019-01-10T12:18:45.788Z,4.10
2019-01-10T12:21:14.461Z,4.10
2019-01-10T12:23:43.016Z,4.10
2019-01-10T12:26:11.544Z,4.00
2019-01-10T12:28:40.164Z,3.90
2019-01-10T12:31:08.629Z,3.80
2019-01-10T12:33:37.200Z,3.80
2019-01-10T12:36:05.810Z,3.70
2019-01-10T12:38:34.369Z,3.70
2019-01-10T12:41:02.900Z,3.70
2019-01-10T12:43:31.527Z,3.70
2019-01-10T12:45:59.987Z,3.70
2019-01-10T12:48:28.539Z,3.60
2019-01-10T12:50:57.071Z,3.50
2019-01-10T12:53:25.704Z,3.60
2019-01-10T12:55:54.238Z,3.60
2019-01-10T12:58:22.693Z,3.60
2019-01-10T13:00:51.244Z,3.70
2019-01-10T13:03:19.700Z,3.70
2019-01-10T13:05:48.252Z,3.60
2019-01-10T13:08:17.121Z,3.50
2019-01-10T13:10:45.677Z,3.50
2019-01-10T13:13:14.279Z,3.50
2019-01-10T13:15:42.906Z,3.40
2019-01-10T13:18:11.508Z,3.40
2019-01-10T13:20:40.060Z,3.30
2019-01-10T13:23:08.580Z,3.30
2019-01-10T13:25:37.065Z,3.20
2019-01-10T13:28:05.664Z,3.20
2019-01-10T13:30:34.296Z,3.20
2019-01-10T13:33:02.824Z,3.20
2019-01-10T13:35:31.448Z,3.20
2019-01-10T13:37:59.913Z,3.10
2019-01-10T13:40:28.533Z,3.10
2019-01-10T13:42:57.160Z,3.20
2019-01-10T13:45:26.389Z,3.10
2019-01-10T13:47:55.058Z,3.10
2019-01-10T13:50:26.048Z,3.10
2019-01-10T13:52:54.720Z,3.00
2019-01-10T13:55:23.342Z,3.00
2019-01-10T13:57:52.073Z,3.00
2019-01-10T14:00:22.988Z,2.90
2019-01-10T14:02:51.581Z,2.90
2019-01-10T14:05:20.144Z,2.90
2019-01-10T14:07:48.676Z,2.80
2019-01-10T14:10:18.361Z,2.80
2019-01-10T14:12:47.062Z,2.80
2019-01-10T14:15:18.982Z,2.80
2019-01-10T14:17:47.658Z,2.80
2019-01-10T14:20:16.553Z,2.80
2019-01-10T14:22:45.348Z,2.80
2019-01-10T14:25:14.253Z,2.80
2019-01-10T14:27:43.037Z,2.70
2019-01-10T14:30:17.532Z,2.70
2019-01-10T14:32:46.081Z,2.70
2019-01-10T14:35:15.163Z,2.70
2019-01-10T14:37:43.833Z,2.70
2019-01-10T14:40:12.923Z,2.70
2019-01-10T14:42:41.452Z,2.70
2019-01-10T14:45:12.984Z,2.70
2019-01-10T14:47:41.588Z,2.70
2019-01-10T14:50:11.392Z,2.70
2019-01-10T14:52:40.052Z,2.70
2019-01-10T14:55:13.831Z,2.70
2019-01-10T14:57:42.492Z,2.60
2019-01-10T15:00:19.751Z,2.60
2019-01-10T15:02:48.209Z,2.60
2019-01-10T15:05:16.960Z,2.60
2019-01-10T15:07:45.730Z,2.60
2019-01-10T15:10:15.389Z,2.60
2019-01-10T15:12:45.316Z,2.60
2019-01-10T15:15:22.329Z,2.60
2019-01-10T15:17:51.031Z,2.60
2019-01-10T15:20:22.524Z,2.60
2019-01-10T15:22:51.056Z,2.60
2019-01-10T15:25:19.588Z,2.50
2019-01-10T15:27:48.213Z,2.50
2019-01-10T15:30:22.247Z,2.50
2019-01-10T15:32:50.805Z,2.50
2019-01-10T15:35:19.433Z,2.50
2019-01-10T15:37:47.960Z,2.50
2019-01-10T15:40:19.492Z,2.50
2019-01-10T15:42:47.981Z,2.50
2019-01-10T15:45:16.652Z,2.50
2019-01-10T15:47:45.282Z,2.50
2019-01-10T15:50:16.544Z,2.40
2019-01-10T15:52:45.364Z,2.50
2019-01-10T15:55:16.133Z,2.50
2019-01-10T15:57:44.696Z,2.50
2019-01-10T16:00:16.433Z,2.50
2019-01-10T16:02:45.065Z,2.50
2019-01-10T16:05:13.732Z,2.50
2019-01-10T16:07:42.357Z,2.50
2019-01-10T16:10:13.425Z,2.50
2019-01-10T16:12:42.261Z,2.50
2019-01-10T16:15:13.952Z,2.50
2019-01-10T16:17:42.581Z,2.50
2019-01-10T16:20:13.048Z,2.40
2019-01-10T16:22:41.949Z,2.40
2019-01-10T16:25:13.020Z,2.40
2019-01-10T16:27:41.817Z,2.40
2019-01-10T16:30:16.532Z,2.40
2019-01-10T16:32:45.060Z,2.40
2019-01-10T16:35:13.588Z,2.40
2019-01-10T16:37:42.305Z,2.30
2019-01-10T16:40:12.976Z,2.40
2019-01-10T16:42:41.870Z,2.30
2019-01-10T16:45:13.836Z,2.30
2019-01-10T16:47:42.405Z,2.30
2019-01-10T16:50:13.274Z,2.20
2019-01-10T16:52:41.751Z,2.20
2019-01-10T16:55:11.953Z,2.20
2019-01-10T16:57:40.581Z,2.30
2019-01-10T17:00:17.862Z,2.30
2019-01-10T17:02:46.424Z,2.30
2019-01-10T17:05:15.085Z,2.30
2019-01-10T17:07:43.742Z,2.30
2019-01-10T17:10:12.921Z,2.30
2019-01-10T17:12:41.402Z,2.20
2019-01-10T17:15:11.881Z,2.30
2019-01-10T17:17:40.495Z,2.20
2019-01-10T17:20:23.617Z,2.20
2019-01-10T17:22:52.309Z,2.20
2019-01-10T17:25:20.903Z,2.10
2019-01-10T17:27:49.432Z,2.10
2019-01-10T17:30:27.135Z,2.10
2019-01-10T17:32:55.742Z,2.00
2019-01-10T17:35:29.786Z,2.00
2019-01-10T17:37:58.553Z,2.00
2019-01-10T17:40:27.175Z,2.00
2019-01-10T17:42:56.052Z,2.00
2019-01-10T17:45:29.828Z,2.00
2019-01-10T17:47:58.432Z,2.00
2019-01-10T17:50:27.177Z,2.00
2019-01-10T17:52:55.713Z,2.00
2019-01-10T17:55:24.344Z,2.00
2019-01-10T17:57:52.870Z,2.00
2019-01-10T18:00:27.848Z,2.00
2019-01-10T18:02:56.428Z,1.90
2019-01-10T18:05:26.081Z,2.00
2019-01-10T18:07:54.609Z,2.00
2019-01-10T18:10:23.405Z,2.00
2019-01-10T18:12:52.113Z,2.00
2019-01-10T18:15:25.219Z,2.00
2019-01-10T18:17:53.752Z,2.00
2019-01-10T18:20:30.511Z,2.00
2019-01-10T18:22:59.040Z,2.00
2019-01-10T18:25:28.022Z,2.00
2019-01-10T18:27:56.624Z,2.00
2019-01-10T18:30:25.185Z,2.00
2019-01-10T18:32:53.716Z,2.10
2019-01-10T18:35:26.329Z,2.10
2019-01-10T18:37:53.183Z,2.00
2019-01-10T18:40:21.741Z,2.10
2019-01-10T18:42:50.663Z,2.10
2019-01-10T18:45:27.985Z,2.10
2019-01-10T18:47:57.224Z,2.10
2019-01-10T18:50:26.144Z,2.00
2019-01-10T18:52:54.825Z,2.10
2019-01-10T18:55:23.443Z,2.10
2019-01-10T18:57:52.272Z,2.10
2019-01-10T19:00:26.665Z,2.00
2019-01-10T19:02:55.797Z,2.00
2019-01-10T19:05:24.845Z,2.00
2019-01-10T19:07:53.443Z,2.00
2019-01-10T19:10:23.437Z,2.00
2019-01-10T19:12:51.893Z,2.00
2019-01-10T19:15:21.111Z,2.00
2019-01-10T19:17:49.719Z,2.00
2019-01-10T19:20:23.587Z,2.00
2019-01-10T19:22:52.590Z,2.00
2019-01-10T19:25:21.157Z,2.00
2019-01-10T19:27:49.685Z,1.90
2019-01-10T19:30:20.748Z,1.90
2019-01-10T19:32:49.582Z,1.90
2019-01-10T19:35:18.044Z,1.90
2019-01-10T19:37:46.938Z,1.90
2019-01-10T19:40:20.905Z,1.90
2019-01-10T19:42:49.703Z,1.90
2019-01-10T19:45:20.217Z,1.90
2019-01-10T19:47:48.773Z,1.90
2019-01-10T19:50:22.628Z,1.90
2019-01-10T19:52:51.673Z,1.80
2019-01-10T19:55:21.644Z,1.80
2019-01-10T19:57:50.641Z,1.80
2019-01-10T20:00:28.100Z,1.80
2019-01-10T20:02:56.798Z,1.80
2019-01-10T20:05:25.869Z,1.70
2019-01-10T20:07:54.565Z,1.70
2019-01-10T20:10:23.237Z,1.70
2019-01-10T20:12:51.864Z,1.80
2019-01-10T20:15:21.310Z,1.80
2019-01-10T20:17:49.956Z,1.70
2019-01-10T20:20:31.381Z,1.70
2019-01-10T20:23:00.379Z,1.70
2019-01-10T20:25:29.121Z,1.70
2019-01-10T20:27:57.812Z,1.70
2019-01-10T20:30:26.408Z,1.70
2019-01-10T20:32:55.401Z,1.70
2019-01-10T20:35:23.997Z,1.70
2019-01-10T20:37:52.801Z,1.70
2019-01-10T20:40:21.794Z,1.60
2019-01-10T20:42:50.416Z,1.60
2019-01-10T20:45:19.393Z,1.60
2019-01-10T20:47:49.441Z,1.70
2019-01-10T20:50:18.462Z,1.70
2019-01-10T20:52:46.996Z,1.70
2019-01-10T20:55:17.323Z,1.60
2019-01-10T20:57:46.177Z,1.70
2019-01-10T21:00:17.813Z,1.60
2019-01-10T21:02:46.580Z,1.60
2019-01-10T21:05:15.131Z,1.60
2019-01-10T21:07:45.376Z,1.50
2019-01-10T21:10:16.848Z,1.50
2019-01-10T21:12:46.040Z,1.40
2019-01-10T21:15:17.364Z,1.40
2019-01-10T21:17:46.182Z,1.30
2019-01-10T21:20:15.210Z,1.30
2019-01-10T21:22:44.109Z,1.30
2019-01-10T21:25:13.391Z,1.30
2019-01-10T21:27:42.153Z,1.30
2019-01-10T21:30:13.780Z,1.30
2019-01-10T21:32:42.737Z,1.20
2019-01-10T21:35:11.339Z,1.20
2019-01-10T21:37:40.219Z,1.10
2019-01-10T21:40:17.654Z,1.10
2019-01-10T21:42:46.429Z,1.10
2019-01-10T21:45:17.928Z,1.00
2019-01-10T21:47:46.629Z,1.00
2019-01-10T21:50:18.092Z,1.00
2019-01-10T21:52:46.765Z,1.00
2019-01-10T21:55:15.565Z,0.90
2019-01-10T21:57:44.093Z,0.90
2019-01-10T22:00:31.630Z,0.90
2019-01-10T22:03:02.635Z,0.90
2019-01-10T22:05:31.360Z,0.80
2019-01-10T22:07:59.960Z,0.80
2019-01-10T22:10:28.988Z,0.90
2019-01-10T22:12:57.442Z,0.80
2019-01-10T22:15:26.208Z,0.80
2019-01-10T22:17:54.740Z,0.80
2019-01-10T22:20:23.298Z,0.80
2019-01-10T22:22:51.896Z,0.80
2019-01-10T22:25:20.705Z,0.80
2019-01-10T22:27:49.308Z,0.80
2019-01-10T22:30:21.108Z,0.80
2019-01-10T22:32:50.060Z,0.80
2019-01-10T22:35:20.756Z,0.80
2019-01-10T22:37:49.426Z,0.80
2019-01-10T22:40:19.949Z,0.80
2019-01-10T22:42:48.818Z,0.90
2019-01-10T22:45:18.392Z,0.80
2019-01-10T22:47:47.353Z,0.90
2019-01-10T22:50:19.029Z,0.90
2019-01-10T22:52:47.719Z,0.90
2019-01-10T22:55:17.011Z,0.90
2019-01-10T22:57:45.637Z,0.90
2019-01-10T23:00:33.921Z,1.00
2019-01-10T23:03:06.734Z,0.90
2019-01-10T23:05:44.065Z,0.90
2019-01-10T23:08:12.669Z,0.90
2019-01-10T23:10:41.360Z,1.00
2019-01-10T23:13:10.036Z,1.00
2019-01-10T23:15:38.593Z,1.00
2019-01-10T23:18:07.854Z,1.00
2019-01-10T23:20:36.887Z,1.00
2019-01-10T23:23:13.034Z,1.10
2019-01-10T23:25:41.596Z,1.10
2019-01-10T23:28:10.258Z,1.10
2019-01-10T23:30:59.625Z,1.00
2019-01-10T23:33:28.494Z,1.00
2019-01-10T23:35:59.311Z,1.00
2019-01-10T23:38:28.208Z,1.00
2019-01-10T23:40:57.100Z,1.00
2019-01-10T23:43:25.629Z,1.00
2019-01-10T23:45:54.296Z,1.00
2019-01-10T23:48:23.228Z,1.00
2019-01-10T23:50:51.938Z,1.00
2019-01-10T23:53:20.629Z,1.00
2019-01-10T23:55:49.228Z,1.00
2019-01-10T23:58:17.856Z,0.90
